INDIA METEOROLOGICAL DEPARTMENT, R.M.C. NEW DELHI
Dated:23-02-2018
METARS


Ahmedabad  
VAAH 222230Z 00000KT 4000 HZ NSC 20/14 Q1008 NOSIG=
Amritsar   
VIAR 222200Z 00000KT 1500 BR SCT100 11/11 Q1011 NOSIG=
Bangalore  
VOBL 222200Z VRB01KT 5000 BR NSC 16/15 Q1015 NOSIG=
Bhopal     
VABP 222100Z 18004KT 6000 NSC 19/12 Q 1012 NO SIG=
Bhubaneswar
VEBS 222130Z 20002KT 4000 HZ NSC 21/19 Q1009 NOSIG=
Chennai    
VOMM 222200Z 00000KT 6000 NSC 23/21 Q1010 BECMG 5000 BR=
Coimbatore 
VOCB 222200Z 11004KT 5000 HZ NSC 21/14 Q1012 NOSIG=
Colombo    
VCBI 222140Z 04004KT 020V080 8000 NSC 22/20 Q1008 NOSIG=
Delhi      
VIDP 222200Z 00000KT 3000 BR FEW100 19/15 Q1010 NOSIG=
Gauhati    
VEGT 222200Z NIL=
Gaya       
VEGY 222200Z NIL=
Goa        
VOGO 222130Z 00000KT 3000 BR NSC 24/21 Q1008 NOSIG=
Hyderabad  
VOHS 222200Z 16005KT 5000 BR FEW020 19/16 Q1013 NOSIG=
Indore     
VAID 222100Z 27004KT 5000 HZ NSC 21/07 Q1013=
Jaipur     
VIJP 222100Z 00000KT 2500 HZ NSC 20/07 Q1011 NOSIG=
Kochi      
VOCI 222200Z 00000KT 3000 HZ NSC 25/22 Q1008 NOSIG=
Kolkata    
VECC 222200Z 00000KT 2400 HZ NSC 21/16 Q1010 NOSIG=
Kozhikode  
VOCL 222200Z 00000KT 4000 BR FEW015 25/22 Q1008 NOSIG=
Lucknow    
VILK 222200Z 00000KT 2000 BR NSC 17/15 Q1009 NOSIG=
Madurai    
VOMD 222100Z 06004KT 6000 FEW020 27/21 Q1011 NOSIG=
Mumbai     
VABB 222200Z 31005KT 2100 BR NSC 26/22 Q1009 NOSIG=
Nagpur     
VANP 222200Z 00000KT 3000 HZ NSC 19/12 Q1011 NOSIG=
Patna      
VEPT 222200Z 00000KT 1800 BR NSC 17/16 Q1008 NOSIG=
Raipur     
VERP 222100Z 14002KT 6000 NSC 21/09 Q1011 NOSIG=
Trichy     
VOTR 222200Z 00000KT 3000 BR FEW016 22/20 Q1010 BECMG 3000 BR=
Trivandrum 
VOTV 222200Z 15002KT 3000 HZ FEW015 26/23 Q1008 NOSIG=
Varanasi   
VEBN 222130Z 00000KT 1100 R27/2000 BR NSC 20/17 Q1009 NOSIG=
Vizag      
VOVZ 222100Z 30004KT 3800 BR NSC 21/18 Q1011 NOSIG =
Male       
VRMM 222200Z 09009KT 9999 FEW018 BKN290 27/22 Q1008 NOSIG=
Kathmandu  
VNKT 222200Z NIL=
Dhaka      
VGHS 222200Z 13003KT 3200 HZ NSC 21/17 Q1010 TEMPO S/VIS 2700M=
Colombo    
VCBI 222140Z 04004KT 020V080 8000 NSC 22/20 Q1008 NOSIG=
Karachi    
OPKC 222155Z 28008KT 5000 FU FEW020 22/20 Q1010 NOSIG=
Lahore     
OPLA 222155Z 00000KT 4000 FU NSC 15/11 Q1011 A29.86 NOSIG=
Gwalior    
VIGR 222100Z 00000KT 4000 HZ NSC 19/13 Q1010=
Pune       
VAPO 222130Z VRB02KT 6000 NSC 21/14 Q1013 NOSIG=